sensor_id;sensor_type;location;lat;lon;timestamp;P1;durP1;ratioP1;P2;durP2;ratioP2
70014;SDS011;57358;51.094;6.760;2023-02-11T00:00:38;9.65;;;6.47;;
70014;SDS011;57358;51.094;6.760;2023-02-11T00:03:05;10.52;;;7.28;;
70014;SDS011;57358;51.094;6.760;2023-02-11T00:05:32;11.48;;;6.63;;
70014;SDS011;57358;51.094;6.760;2023-02-11T00:07:59;7.28;;;6.18;;
70014;SDS011;57358;51.094;6.760;2023-02-11T00:10:26;13.15;;;7.07;;
70014;SDS011;57358;51.094;6.760;2023-02-11T00:12:52;10.52;;;7.20;;
70014;SDS011;57358;51.094;6.760;2023-02-11T00:15:18;9.45;;;6.55;;
70014;SDS011;57358;51.094;6.760;2023-02-11T00:17:46;9.75;;;7.40;;
70014;SDS011;57358;51.094;6.760;2023-02-11T00:20:12;12.73;;;7.72;;
70014;SDS011;57358;51.094;6.760;2023-02-11T00:22:39;10.73;;;8.07;;
70014;SDS011;57358;51.094;6.760;2023-02-11T00:25:05;9.95;;;7.88;;
70014;SDS011;57358;51.094;6.760;2023-02-11T00:27:32;9.95;;;7.03;;
70014;SDS011;57358;51.094;6.760;2023-02-11T00:29:58;8.93;;;6.57;;
70014;SDS011;57358;51.094;6.760;2023-02-11T00:32:27;8.18;;;7.20;;
70014;SDS011;57358;51.094;6.760;2023-02-11T00:34:53;15.90;;;7.40;;
70014;SDS011;57358;51.094;6.760;2023-02-11T00:37:20;12.43;;;7.20;;
70014;SDS011;57358;51.094;6.760;2023-02-11T00:39:48;14.13;;;8.10;;
70014;SDS011;57358;51.094;6.760;2023-02-11T00:42:15;8.80;;;6.68;;
70014;SDS011;57358;51.094;6.760;2023-02-11T00:44:41;13.38;;;8.05;;
70014;SDS011;57358;51.094;6.760;2023-02-11T00:47:08;15.00;;;5.93;;
70014;SDS011;57358;51.094;6.760;2023-02-11T00:49:35;8.57;;;7.35;;
70014;SDS011;57358;51.094;6.760;2023-02-11T00:52:02;9.45;;;6.93;;
70014;SDS011;57358;51.094;6.760;2023-02-11T00:54:28;10.05;;;7.65;;
70014;SDS011;57358;51.094;6.760;2023-02-11T00:56:55;21.58;;;7.55;;
70014;SDS011;57358;51.094;6.760;2023-02-11T00:59:21;8.25;;;7.40;;
70014;SDS011;57358;51.094;6.760;2023-02-11T01:01:48;9.93;;;5.00;;
70014;SDS011;57358;51.094;6.760;2023-02-11T01:04:14;13.50;;;7.90;;
70014;SDS011;57358;51.094;6.760;2023-02-11T01:06:41;10.15;;;7.13;;
70014;SDS011;57358;51.094;6.760;2023-02-11T01:09:07;9.02;;;6.95;;
70014;SDS011;57358;51.094;6.760;2023-02-11T01:11:34;7.80;;;6.45;;
70014;SDS011;57358;51.094;6.760;2023-02-11T01:14:00;8.07;;;7.07;;
70014;SDS011;57358;51.094;6.760;2023-02-11T01:16:27;7.68;;;6.82;;
70014;SDS011;57358;51.094;6.760;2023-02-11T01:18:54;13.13;;;8.55;;
70014;SDS011;57358;51.094;6.760;2023-02-11T01:21:20;9.13;;;6.78;;
70014;SDS011;57358;51.094;6.760;2023-02-11T01:23:47;6.95;;;6.28;;
70014;SDS011;57358;51.094;6.760;2023-02-11T01:26:13;10.95;;;7.50;;
70014;SDS011;57358;51.094;6.760;2023-02-11T01:28:40;9.68;;;6.75;;
70014;SDS011;57358;51.094;6.760;2023-02-11T01:31:06;11.82;;;6.97;;
70014;SDS011;57358;51.094;6.760;2023-02-11T01:33:33;7.30;;;6.03;;
70014;SDS011;57358;51.094;6.760;2023-02-11T01:36:00;8.10;;;7.32;;
70014;SDS011;57358;51.094;6.760;2023-02-11T01:38:29;7.65;;;6.85;;
70014;SDS011;57358;51.094;6.760;2023-02-11T01:40:57;9.43;;;6.97;;
70014;SDS011;57358;51.094;6.760;2023-02-11T01:43:26;12.07;;;7.35;;
70014;SDS011;57358;51.094;6.760;2023-02-11T01:45:57;10.10;;;8.00;;
70014;SDS011;57358;51.094;6.760;2023-02-11T01:48:56;6.93;;;6.05;;
70014;SDS011;57358;51.094;6.760;2023-02-11T01:51:26;8.45;;;7.55;;
70014;SDS011;57358;51.094;6.760;2023-02-11T01:53:59;7.78;;;6.97;;
70014;SDS011;57358;51.094;6.760;2023-02-11T01:56:47;8.75;;;7.93;;
70014;SDS011;57358;51.094;6.760;2023-02-11T02:05:34;20.73;;;8.52;;
70014;SDS011;57358;51.094;6.760;2023-02-11T02:08:22;8.93;;;8.00;;
70014;SDS011;57358;51.094;6.760;2023-02-11T02:10:51;13.25;;;7.97;;
70014;SDS011;57358;51.094;6.760;2023-02-11T02:13:22;5.57;;;5.18;;
70014;SDS011;57358;51.094;6.760;2023-02-11T02:16:06;10.90;;;7.65;;
70014;SDS011;57358;51.094;6.760;2023-02-11T02:18:54;13.85;;;7.43;;
70014;SDS011;57358;51.094;6.760;2023-02-11T02:21:35;9.90;;;8.35;;
70014;SDS011;57358;51.094;6.760;2023-02-11T02:35:52;6.28;;;5.63;;
70014;SDS011;57358;51.094;6.760;2023-02-11T02:38:29;9.45;;;6.50;;
70014;SDS011;57358;51.094;6.760;2023-02-11T02:41:05;9.65;;;6.85;;
70014;SDS011;57358;51.094;6.760;2023-02-11T02:43:35;5.68;;;5.20;;
70014;SDS011;57358;51.094;6.760;2023-02-11T02:48:37;13.07;;;9.32;;
70014;SDS011;57358;51.094;6.760;2023-02-11T02:51:24;8.10;;;7.30;;
70014;SDS011;57358;51.094;6.760;2023-02-11T02:54:13;7.82;;;6.78;;
70014;SDS011;57358;51.094;6.760;2023-02-11T02:56:53;12.60;;;7.90;;
70014;SDS011;57358;51.094;6.760;2023-02-11T03:02:24;6.90;;;6.30;;
70014;SDS011;57358;51.094;6.760;2023-02-11T03:07:51;9.35;;;7.20;;
70014;SDS011;57358;51.094;6.760;2023-02-11T03:12:53;15.55;;;7.80;;
70014;SDS011;57358;51.094;6.760;2023-02-11T03:15:22;8.05;;;6.72;;
70014;SDS011;57358;51.094;6.760;2023-02-11T03:17:52;7.55;;;6.78;;
70014;SDS011;57358;51.094;6.760;2023-02-11T03:20:21;12.90;;;7.32;;
70014;SDS011;57358;51.094;6.760;2023-02-11T03:22:50;8.63;;;6.72;;
70014;SDS011;57358;51.094;6.760;2023-02-11T03:25:24;9.95;;;7.05;;
70014;SDS011;57358;51.094;6.760;2023-02-11T03:28:02;7.95;;;7.20;;
70014;SDS011;57358;51.094;6.760;2023-02-11T03:30:39;6.18;;;5.68;;
70014;SDS011;57358;51.094;6.760;2023-02-11T03:33:23;14.88;;;7.75;;
70014;SDS011;57358;51.094;6.760;2023-02-11T03:35:59;10.23;;;6.70;;
70014;SDS011;57358;51.094;6.760;2023-02-11T03:38:32;7.88;;;7.18;;
70014;SDS011;57358;51.094;6.760;2023-02-11T03:41:02;9.90;;;7.55;;
70014;SDS011;57358;51.094;6.760;2023-02-11T03:46:00;9.57;;;7.18;;
70014;SDS011;57358;51.094;6.760;2023-02-11T03:48:38;10.80;;;7.25;;
70014;SDS011;57358;51.094;6.760;2023-02-11T03:51:08;10.68;;;8.13;;
70014;SDS011;57358;51.094;6.760;2023-02-11T03:53:38;9.85;;;8.57;;
70014;SDS011;57358;51.094;6.760;2023-02-11T03:56:09;10.75;;;6.40;;
70014;SDS011;57358;51.094;6.760;2023-02-11T03:58:45;10.05;;;7.50;;
70014;SDS011;57358;51.094;6.760;2023-02-11T04:01:15;12.10;;;7.30;;
70014;SDS011;57358;51.094;6.760;2023-02-11T04:03:41;7.10;;;6.40;;
70014;SDS011;57358;51.094;6.760;2023-02-11T04:06:08;9.68;;;7.80;;
70014;SDS011;57358;51.094;6.760;2023-02-11T04:08:34;8.38;;;6.63;;
70014;SDS011;57358;51.094;6.760;2023-02-11T04:11:01;8.38;;;7.20;;
70014;SDS011;57358;51.094;6.760;2023-02-11T04:13:27;9.52;;;7.15;;
70014;SDS011;57358;51.094;6.760;2023-02-11T04:15:54;11.55;;;7.93;;
70014;SDS011;57358;51.094;6.760;2023-02-11T04:18:20;6.82;;;6.18;;
70014;SDS011;57358;51.094;6.760;2023-02-11T04:20:47;12.50;;;7.70;;
70014;SDS011;57358;51.094;6.760;2023-02-11T04:23:15;7.35;;;6.72;;
70014;SDS011;57358;51.094;6.760;2023-02-11T04:25:41;8.40;;;6.72;;
70014;SDS011;57358;51.094;6.760;2023-02-11T04:28:08;6.03;;;5.57;;
70014;SDS011;57358;51.094;6.760;2023-02-11T04:30:34;10.88;;;7.47;;
70014;SDS011;57358;51.094;6.760;2023-02-11T04:33:01;9.00;;;7.60;;
70014;SDS011;57358;51.094;6.760;2023-02-11T04:35:27;6.55;;;5.95;;
70014;SDS011;57358;51.094;6.760;2023-02-11T04:37:54;7.78;;;6.60;;
70014;SDS011;57358;51.094;6.760;2023-02-11T04:40:20;10.10;;;7.03;;
70014;SDS011;57358;51.094;6.760;2023-02-11T04:42:47;12.98;;;8.88;;
70014;SDS011;57358;51.094;6.760;2023-02-11T04:45:13;12.93;;;7.22;;
70014;SDS011;57358;51.094;6.760;2023-02-11T04:47:39;16.75;;;7.10;;
70014;SDS011;57358;51.094;6.760;2023-02-11T04:50:06;8.27;;;7.50;;
70014;SDS011;57358;51.094;6.760;2023-02-11T04:52:32;11.02;;;6.18;;
70014;SDS011;57358;51.094;6.760;2023-02-11T04:54:59;17.63;;;7.40;;
70014;SDS011;57358;51.094;6.760;2023-02-11T04:57:25;8.43;;;5.75;;
70014;SDS011;57358;51.094;6.760;2023-02-11T04:59:52;9.60;;;6.10;;
70014;SDS011;57358;51.094;6.760;2023-02-11T05:02:18;14.02;;;8.25;;
70014;SDS011;57358;51.094;6.760;2023-02-11T05:04:45;9.55;;;7.63;;
70014;SDS011;57358;51.094;6.760;2023-02-11T05:07:11;8.65;;;7.65;;
70014;SDS011;57358;51.094;6.760;2023-02-11T05:09:37;6.60;;;6.10;;
70014;SDS011;57358;51.094;6.760;2023-02-11T05:12:04;13.32;;;7.57;;
70014;SDS011;57358;51.094;6.760;2023-02-11T05:14:30;14.48;;;7.70;;
70014;SDS011;57358;51.094;6.760;2023-02-11T05:16:57;9.60;;;8.40;;
70014;SDS011;57358;51.094;6.760;2023-02-11T05:19:24;13.02;;;7.57;;
70014;SDS011;57358;51.094;6.760;2023-02-11T05:21:50;9.30;;;8.30;;
70014;SDS011;57358;51.094;6.760;2023-02-11T05:24:28;7.43;;;6.65;;
70014;SDS011;57358;51.094;6.760;2023-02-11T05:26:56;10.52;;;7.22;;
70014;SDS011;57358;51.094;6.760;2023-02-11T05:29:22;6.97;;;5.97;;
70014;SDS011;57358;51.094;6.760;2023-02-11T05:31:49;10.60;;;7.30;;
70014;SDS011;57358;51.094;6.760;2023-02-11T05:34:15;7.95;;;7.15;;
70014;SDS011;57358;51.094;6.760;2023-02-11T05:36:42;6.55;;;6.05;;
70014;SDS011;57358;51.094;6.760;2023-02-11T05:39:08;8.40;;;6.15;;
70014;SDS011;57358;51.094;6.760;2023-02-11T05:41:38;10.73;;;7.60;;
70014;SDS011;57358;51.094;6.760;2023-02-11T05:44:04;8.77;;;7.35;;
70014;SDS011;57358;51.094;6.760;2023-02-11T05:46:30;10.55;;;8.95;;
70014;SDS011;57358;51.094;6.760;2023-02-11T05:48:57;17.45;;;8.65;;
70014;SDS011;57358;51.094;6.760;2023-02-11T05:51:24;9.93;;;7.78;;
70014;SDS011;57358;51.094;6.760;2023-02-11T05:53:50;7.50;;;6.80;;
70014;SDS011;57358;51.094;6.760;2023-02-11T05:56:17;9.68;;;6.55;;
70014;SDS011;57358;51.094;6.760;2023-02-11T05:59:12;7.80;;;6.97;;
70014;SDS011;57358;51.094;6.760;2023-02-11T06:01:39;13.32;;;8.02;;
70014;SDS011;57358;51.094;6.760;2023-02-11T06:04:08;15.15;;;6.90;;
70014;SDS011;57358;51.094;6.760;2023-02-11T06:06:34;11.63;;;9.70;;
70014;SDS011;57358;51.094;6.760;2023-02-11T06:09:01;8.88;;;6.35;;
70014;SDS011;57358;51.094;6.760;2023-02-11T06:11:28;6.63;;;5.97;;
70014;SDS011;57358;51.094;6.760;2023-02-11T06:13:56;7.10;;;6.43;;
70014;SDS011;57358;51.094;6.760;2023-02-11T06:16:22;10.95;;;6.75;;
70014;SDS011;57358;51.094;6.760;2023-02-11T06:18:49;13.32;;;8.48;;
70014;SDS011;57358;51.094;6.760;2023-02-11T06:21:16;7.53;;;6.68;;
70014;SDS011;57358;51.094;6.760;2023-02-11T06:24:10;8.10;;;6.40;;
70014;SDS011;57358;51.094;6.760;2023-02-11T06:26:38;8.23;;;6.65;;
70014;SDS011;57358;51.094;6.760;2023-02-11T06:29:04;8.80;;;8.00;;
70014;SDS011;57358;51.094;6.760;2023-02-11T06:31:31;9.35;;;7.47;;
70014;SDS011;57358;51.094;6.760;2023-02-11T06:33:57;8.63;;;7.88;;
70014;SDS011;57358;51.094;6.760;2023-02-11T06:36:24;8.00;;;7.18;;
70014;SDS011;57358;51.094;6.760;2023-02-11T06:38:53;10.88;;;8.18;;
70014;SDS011;57358;51.094;6.760;2023-02-11T06:41:20;12.35;;;7.07;;
70014;SDS011;57358;51.094;6.760;2023-02-11T06:43:47;11.85;;;7.78;;
70014;SDS011;57358;51.094;6.760;2023-02-11T06:46:15;17.58;;;7.55;;
70014;SDS011;57358;51.094;6.760;2023-02-11T06:49:13;11.85;;;8.45;;
70014;SDS011;57358;51.094;6.760;2023-02-11T06:51:39;9.68;;;8.18;;
70014;SDS011;57358;51.094;6.760;2023-02-11T06:54:06;7.50;;;6.82;;
70014;SDS011;57358;51.094;6.760;2023-02-11T06:56:33;24.98;;;6.70;;
70014;SDS011;57358;51.094;6.760;2023-02-11T06:59:27;13.35;;;8.65;;
70014;SDS011;57358;51.094;6.760;2023-02-11T07:01:54;13.82;;;8.02;;
70014;SDS011;57358;51.094;6.760;2023-02-11T07:04:21;16.05;;;9.05;;
70014;SDS011;57358;51.094;6.760;2023-02-11T07:06:47;11.75;;;7.65;;
70014;SDS011;57358;51.094;6.760;2023-02-11T07:09:41;8.65;;;6.45;;
70014;SDS011;57358;51.094;6.760;2023-02-11T07:12:08;9.35;;;7.70;;
70014;SDS011;57358;51.094;6.760;2023-02-11T07:14:36;11.45;;;8.93;;
70014;SDS011;57358;51.094;6.760;2023-02-11T07:17:03;11.20;;;8.23;;
70014;SDS011;57358;51.094;6.760;2023-02-11T07:19:58;13.70;;;8.30;;
70014;SDS011;57358;51.094;6.760;2023-02-11T07:22:24;12.52;;;7.50;;
70014;SDS011;57358;51.094;6.760;2023-02-11T07:24:50;12.80;;;8.05;;
70014;SDS011;57358;51.094;6.760;2023-02-11T07:27:17;9.18;;;8.23;;
70014;SDS011;57358;51.094;6.760;2023-02-11T07:29:43;9.63;;;6.97;;
70014;SDS011;57358;51.094;6.760;2023-02-11T07:32:12;10.00;;;8.00;;
70014;SDS011;57358;51.094;6.760;2023-02-11T07:34:39;17.85;;;7.68;;
70014;SDS011;57358;51.094;6.760;2023-02-11T07:37:05;9.82;;;8.85;;
70014;SDS011;57358;51.094;6.760;2023-02-11T07:39:31;13.45;;;9.02;;
70014;SDS011;57358;51.094;6.760;2023-02-11T07:41:58;10.60;;;8.13;;
70014;SDS011;57358;51.094;6.760;2023-02-11T07:44:25;8.73;;;7.93;;
70014;SDS011;57358;51.094;6.760;2023-02-11T07:46:51;11.15;;;9.50;;
70014;SDS011;57358;51.094;6.760;2023-02-11T07:49:18;12.20;;;10.00;;
70014;SDS011;57358;51.094;6.760;2023-02-11T07:51:44;17.35;;;8.52;;
70014;SDS011;57358;51.094;6.760;2023-02-11T07:54:12;14.90;;;9.32;;
70014;SDS011;57358;51.094;6.760;2023-02-11T07:56:38;19.70;;;11.23;;
70014;SDS011;57358;51.094;6.760;2023-02-11T07:59:05;17.25;;;9.68;;
70014;SDS011;57358;51.094;6.760;2023-02-11T08:01:31;14.15;;;9.30;;
70014;SDS011;57358;51.094;6.760;2023-02-11T08:03:59;9.68;;;8.57;;
70014;SDS011;57358;51.094;6.760;2023-02-11T08:06:53;10.55;;;7.72;;
70014;SDS011;57358;51.094;6.760;2023-02-11T08:09:24;9.60;;;8.20;;
70014;SDS011;57358;51.094;6.760;2023-02-11T08:11:50;12.93;;;10.52;;
70014;SDS011;57358;51.094;6.760;2023-02-11T08:14:17;19.77;;;10.40;;
70014;SDS011;57358;51.094;6.760;2023-02-11T08:16:43;11.45;;;9.82;;
70014;SDS011;57358;51.094;6.760;2023-02-11T08:19:11;21.02;;;9.88;;
70014;SDS011;57358;51.094;6.760;2023-02-11T08:21:40;16.92;;;9.63;;
70014;SDS011;57358;51.094;6.760;2023-02-11T08:24:07;9.60;;;8.13;;
70014;SDS011;57358;51.094;6.760;2023-02-11T08:26:34;20.55;;;10.30;;
70014;SDS011;57358;51.094;6.760;2023-02-11T08:29:11;13.02;;;7.68;;
70014;SDS011;57358;51.094;6.760;2023-02-11T08:32:07;13.15;;;8.13;;
70014;SDS011;57358;51.094;6.760;2023-02-11T08:34:33;14.30;;;10.85;;
70014;SDS011;57358;51.094;6.760;2023-02-11T08:37:02;13.43;;;11.23;;
70014;SDS011;57358;51.094;6.760;2023-02-11T08:39:29;11.85;;;6.85;;
70014;SDS011;57358;51.094;6.760;2023-02-11T08:42:23;15.00;;;10.43;;
70014;SDS011;57358;51.094;6.760;2023-02-11T08:44:49;11.65;;;8.50;;
70014;SDS011;57358;51.094;6.760;2023-02-11T08:47:16;8.73;;;7.90;;
70014;SDS011;57358;51.094;6.760;2023-02-11T08:49:42;16.75;;;8.82;;
70014;SDS011;57358;51.094;6.760;2023-02-11T08:52:36;10.82;;;9.27;;
70014;SDS011;57358;51.094;6.760;2023-02-11T08:55:03;14.93;;;9.35;;
70014;SDS011;57358;51.094;6.760;2023-02-11T08:57:30;18.00;;;8.77;;
70014;SDS011;57358;51.094;6.760;2023-02-11T08:59:56;18.02;;;8.10;;
70014;SDS011;57358;51.094;6.760;2023-02-11T09:02:23;10.25;;;6.75;;
70014;SDS011;57358;51.094;6.760;2023-02-11T09:04:52;10.65;;;7.97;;
70014;SDS011;57358;51.094;6.760;2023-02-11T09:07:18;10.93;;;8.90;;
70014;SDS011;57358;51.094;6.760;2023-02-11T09:09:45;15.73;;;9.18;;
70014;SDS011;57358;51.094;6.760;2023-02-11T09:12:11;8.75;;;7.95;;
70014;SDS011;57358;51.094;6.760;2023-02-11T09:14:38;17.77;;;10.75;;
70014;SDS011;57358;51.094;6.760;2023-02-11T09:17:04;15.48;;;8.07;;
70014;SDS011;57358;51.094;6.760;2023-02-11T09:19:31;10.30;;;6.97;;
70014;SDS011;57358;51.094;6.760;2023-02-11T09:21:58;19.77;;;9.07;;
70014;SDS011;57358;51.094;6.760;2023-02-11T09:24:24;14.35;;;7.53;;
70014;SDS011;57358;51.094;6.760;2023-02-11T09:26:50;12.85;;;8.15;;
70014;SDS011;57358;51.094;6.760;2023-02-11T09:29:17;6.95;;;5.95;;
70014;SDS011;57358;51.094;6.760;2023-02-11T09:31:43;15.95;;;10.02;;
70014;SDS011;57358;51.094;6.760;2023-02-11T09:34:10;13.60;;;8.73;;
70014;SDS011;57358;51.094;6.760;2023-02-11T09:36:38;21.73;;;11.32;;
70014;SDS011;57358;51.094;6.760;2023-02-11T09:39:14;17.50;;;10.48;;
70014;SDS011;57358;51.094;6.760;2023-02-11T09:44:28;12.00;;;8.98;;
70014;SDS011;57358;51.094;6.760;2023-02-11T09:47:02;16.88;;;8.55;;
70014;SDS011;57358;51.094;6.760;2023-02-11T09:49:38;12.73;;;8.20;;
70014;SDS011;57358;51.094;6.760;2023-02-11T09:52:12;10.68;;;8.02;;
70014;SDS011;57358;51.094;6.760;2023-02-11T09:54:53;16.80;;;10.60;;
70014;SDS011;57358;51.094;6.760;2023-02-11T09:57:21;11.03;;;8.40;;
70014;SDS011;57358;51.094;6.760;2023-02-11T09:59:54;13.82;;;8.27;;
70014;SDS011;57358;51.094;6.760;2023-02-11T10:02:23;11.82;;;7.75;;
70014;SDS011;57358;51.094;6.760;2023-02-11T10:08:00;13.05;;;9.30;;
70014;SDS011;57358;51.094;6.760;2023-02-11T10:10:51;13.15;;;10.20;;
70014;SDS011;57358;51.094;6.760;2023-02-11T10:16:36;10.38;;;8.02;;
70014;SDS011;57358;51.094;6.760;2023-02-11T10:19:33;14.82;;;9.32;;
70014;SDS011;57358;51.094;6.760;2023-02-11T10:22:09;10.57;;;9.18;;
70014;SDS011;57358;51.094;6.760;2023-02-11T10:24:51;14.35;;;9.43;;
70014;SDS011;57358;51.094;6.760;2023-02-11T10:27:26;11.88;;;9.05;;
70014;SDS011;57358;51.094;6.760;2023-02-11T10:30:05;12.70;;;9.52;;
70014;SDS011;57358;51.094;6.760;2023-02-11T10:32:43;11.13;;;7.93;;
70014;SDS011;57358;51.094;6.760;2023-02-11T10:35:16;13.60;;;8.27;;
70014;SDS011;57358;51.094;6.760;2023-02-11T10:38:14;14.55;;;10.32;;
70014;SDS011;57358;51.094;6.760;2023-02-11T10:40:43;22.42;;;10.52;;
70014;SDS011;57358;51.094;6.760;2023-02-11T10:43:11;17.15;;;10.02;;
70014;SDS011;57358;51.094;6.760;2023-02-11T10:48:46;24.48;;;11.43;;
70014;SDS011;57358;51.094;6.760;2023-02-11T10:56:33;23.63;;;10.93;;
70014;SDS011;57358;51.094;6.760;2023-02-11T10:59:06;11.55;;;8.60;;
70014;SDS011;57358;51.094;6.760;2023-02-11T11:01:45;20.80;;;11.07;;
70014;SDS011;57358;51.094;6.760;2023-02-11T11:04:25;11.95;;;8.00;;
70014;SDS011;57358;51.094;6.760;2023-02-11T11:07:10;14.10;;;9.38;;
70014;SDS011;57358;51.094;6.760;2023-02-11T11:09:52;12.90;;;8.60;;
70014;SDS011;57358;51.094;6.760;2023-02-11T11:14:55;22.90;;;10.55;;
70014;SDS011;57358;51.094;6.760;2023-02-11T11:17:23;19.83;;;11.50;;
70014;SDS011;57358;51.094;6.760;2023-02-11T11:20:13;14.85;;;9.10;;
70014;SDS011;57358;51.094;6.760;2023-02-11T11:22:40;13.00;;;9.20;;
70014;SDS011;57358;51.094;6.760;2023-02-11T11:27:48;15.10;;;10.23;;
70014;SDS011;57358;51.094;6.760;2023-02-11T11:30:16;15.65;;;9.02;;
70014;SDS011;57358;51.094;6.760;2023-02-11T11:32:43;15.85;;;8.75;;
70014;SDS011;57358;51.094;6.760;2023-02-11T11:35:19;13.57;;;9.40;;
70014;SDS011;57358;51.094;6.760;2023-02-11T11:37:53;13.73;;;9.43;;
70014;SDS011;57358;51.094;6.760;2023-02-11T11:40:28;15.10;;;12.00;;
70014;SDS011;57358;51.094;6.760;2023-02-11T11:43:06;12.75;;;9.82;;
70014;SDS011;57358;51.094;6.760;2023-02-11T11:45:38;16.70;;;9.15;;
70014;SDS011;57358;51.094;6.760;2023-02-11T11:48:21;16.27;;;10.02;;
70014;SDS011;57358;51.094;6.760;2023-02-11T11:50:54;21.63;;;9.77;;
70014;SDS011;57358;51.094;6.760;2023-02-11T11:53:27;13.07;;;9.70;;
70014;SDS011;57358;51.094;6.760;2023-02-11T11:56:03;23.13;;;10.20;;
70014;SDS011;57358;51.094;6.760;2023-02-11T11:58:34;12.68;;;9.07;;
70014;SDS011;57358;51.094;6.760;2023-02-11T12:01:07;17.27;;;9.10;;
70014;SDS011;57358;51.094;6.760;2023-02-11T12:04:04;19.13;;;9.75;;
70014;SDS011;57358;51.094;6.760;2023-02-11T12:06:52;14.63;;;10.57;;
70014;SDS011;57358;51.094;6.760;2023-02-11T12:15:10;23.05;;;10.73;;
70014;SDS011;57358;51.094;6.760;2023-02-11T12:18:27;14.18;;;10.90;;
70014;SDS011;57358;51.094;6.760;2023-02-11T12:26:13;17.80;;;11.85;;
70014;SDS011;57358;51.094;6.760;2023-02-11T12:31:38;14.73;;;10.43;;
70014;SDS011;57358;51.094;6.760;2023-02-11T12:37:24;10.80;;;9.85;;
70014;SDS011;57358;51.094;6.760;2023-02-11T12:40:10;15.98;;;11.68;;
70014;SDS011;57358;51.094;6.760;2023-02-11T12:56:22;25.67;;;12.10;;
70014;SDS011;57358;51.094;6.760;2023-02-11T12:58:54;26.88;;;14.15;;
70014;SDS011;57358;51.094;6.760;2023-02-11T13:01:25;16.80;;;9.90;;
70014;SDS011;57358;51.094;6.760;2023-02-11T13:07:14;27.15;;;12.68;;
70014;SDS011;57358;51.094;6.760;2023-02-11T13:09:48;14.55;;;9.60;;
70014;SDS011;57358;51.094;6.760;2023-02-11T13:12:19;14.68;;;10.73;;
70014;SDS011;57358;51.094;6.760;2023-02-11T13:15:06;24.90;;;12.25;;
70014;SDS011;57358;51.094;6.760;2023-02-11T13:17:42;21.15;;;11.40;;
70014;SDS011;57358;51.094;6.760;2023-02-11T13:20:35;11.38;;;8.80;;
70014;SDS011;57358;51.094;6.760;2023-02-11T13:25:53;14.55;;;9.68;;
70014;SDS011;57358;51.094;6.760;2023-02-11T13:31:32;27.20;;;12.60;;
70014;SDS011;57358;51.094;6.760;2023-02-11T13:33:59;16.95;;;10.55;;
70014;SDS011;57358;51.094;6.760;2023-02-11T13:36:28;18.60;;;11.88;;
70014;SDS011;57358;51.094;6.760;2023-02-11T13:39:02;18.05;;;9.82;;
70014;SDS011;57358;51.094;6.760;2023-02-11T13:41:36;15.68;;;11.48;;
70014;SDS011;57358;51.094;6.760;2023-02-11T13:47:13;26.17;;;10.05;;
70014;SDS011;57358;51.094;6.760;2023-02-11T13:49:32;22.10;;;10.45;;
70014;SDS011;57358;51.094;6.760;2023-02-11T13:52:04;26.17;;;11.52;;
70014;SDS011;57358;51.094;6.760;2023-02-11T13:54:45;30.25;;;11.18;;
70014;SDS011;57358;51.094;6.760;2023-02-11T13:57:21;23.52;;;11.63;;
70014;SDS011;57358;51.094;6.760;2023-02-11T13:59:53;17.90;;;11.85;;
70014;SDS011;57358;51.094;6.760;2023-02-11T14:02:25;22.60;;;11.18;;
70014;SDS011;57358;51.094;6.760;2023-02-11T14:05:18;23.88;;;11.05;;
70014;SDS011;57358;51.094;6.760;2023-02-11T14:13:28;18.88;;;10.00;;
70014;SDS011;57358;51.094;6.760;2023-02-11T14:16:12;23.92;;;9.50;;
70014;SDS011;57358;51.094;6.760;2023-02-11T14:21:16;32.35;;;13.40;;
70014;SDS011;57358;51.094;6.760;2023-02-11T14:23:45;32.88;;;11.88;;
70014;SDS011;57358;51.094;6.760;2023-02-11T14:28:58;24.15;;;11.20;;
70014;SDS011;57358;51.094;6.760;2023-02-11T14:31:40;23.92;;;10.38;;
70014;SDS011;57358;51.094;6.760;2023-02-11T14:37:26;17.25;;;10.30;;
70014;SDS011;57358;51.094;6.760;2023-02-11T14:42:34;28.75;;;12.00;;
70014;SDS011;57358;51.094;6.760;2023-02-11T14:45:05;16.50;;;10.80;;
70014;SDS011;57358;51.094;6.760;2023-02-11T14:47:39;22.25;;;11.32;;
70014;SDS011;57358;51.094;6.760;2023-02-11T14:50:15;15.55;;;10.38;;
70014;SDS011;57358;51.094;6.760;2023-02-11T14:52:47;21.48;;;11.38;;
70014;SDS011;57358;51.094;6.760;2023-02-11T14:55:17;27.52;;;11.90;;
70014;SDS011;57358;51.094;6.760;2023-02-11T15:01:01;27.42;;;11.93;;
70014;SDS011;57358;51.094;6.760;2023-02-11T15:03:35;24.73;;;12.27;;
70014;SDS011;57358;51.094;6.760;2023-02-11T15:06:17;22.73;;;11.95;;
70014;SDS011;57358;51.094;6.760;2023-02-11T15:08:56;24.92;;;12.68;;
70014;SDS011;57358;51.094;6.760;2023-02-11T15:11:30;24.05;;;13.20;;
70014;SDS011;57358;51.094;6.760;2023-02-11T15:14:10;16.65;;;12.75;;
70014;SDS011;57358;51.094;6.760;2023-02-11T15:16:44;23.20;;;10.57;;
70014;SDS011;57358;51.094;6.760;2023-02-11T15:19:16;19.88;;;11.95;;
70014;SDS011;57358;51.094;6.760;2023-02-11T15:21:48;18.38;;;11.13;;
70014;SDS011;57358;51.094;6.760;2023-02-11T15:26:58;19.33;;;10.43;;
70014;SDS011;57358;51.094;6.760;2023-02-11T15:29:28;20.02;;;10.35;;
70014;SDS011;57358;51.094;6.760;2023-02-11T15:32:11;21.08;;;10.07;;
70014;SDS011;57358;51.094;6.760;2023-02-11T15:34:41;20.15;;;12.20;;
70014;SDS011;57358;51.094;6.760;2023-02-11T15:39:48;20.98;;;11.40;;
70014;SDS011;57358;51.094;6.760;2023-02-11T15:42:16;20.20;;;10.68;;
70014;SDS011;57358;51.094;6.760;2023-02-11T15:45:10;30.80;;;13.32;;
70014;SDS011;57358;51.094;6.760;2023-02-11T15:47:49;30.25;;;12.05;;
70014;SDS011;57358;51.094;6.760;2023-02-11T15:50:40;23.10;;;11.45;;
70014;SDS011;57358;51.094;6.760;2023-02-11T15:53:23;19.92;;;10.77;;
70014;SDS011;57358;51.094;6.760;2023-02-11T15:56:19;16.35;;;11.60;;
70014;SDS011;57358;51.094;6.760;2023-02-11T15:58:55;18.33;;;10.93;;
70014;SDS011;57358;51.094;6.760;2023-02-11T16:01:28;12.35;;;8.95;;
70014;SDS011;57358;51.094;6.760;2023-02-11T16:03:59;22.33;;;11.50;;
70014;SDS011;57358;51.094;6.760;2023-02-11T16:06:34;26.02;;;12.75;;
70014;SDS011;57358;51.094;6.760;2023-02-11T16:11:34;33.03;;;13.10;;
70014;SDS011;57358;51.094;6.760;2023-02-11T16:16:59;20.75;;;11.35;;
70014;SDS011;57358;51.094;6.760;2023-02-11T16:19:32;19.65;;;12.77;;
70014;SDS011;57358;51.094;6.760;2023-02-11T16:22:01;28.33;;;11.85;;
70014;SDS011;57358;51.094;6.760;2023-02-11T16:24:34;32.72;;;12.55;;
70014;SDS011;57358;51.094;6.760;2023-02-11T16:27:03;16.15;;;9.90;;
70014;SDS011;57358;51.094;6.760;2023-02-11T16:29:34;27.90;;;12.70;;
70014;SDS011;57358;51.094;6.760;2023-02-11T16:32:07;17.20;;;10.75;;
70014;SDS011;57358;51.094;6.760;2023-02-11T16:34:40;19.05;;;12.15;;
70014;SDS011;57358;51.094;6.760;2023-02-11T16:37:07;23.45;;;13.23;;
70014;SDS011;57358;51.094;6.760;2023-02-11T16:39:33;19.40;;;9.82;;
70014;SDS011;57358;51.094;6.760;2023-02-11T16:42:00;17.45;;;11.77;;
70014;SDS011;57358;51.094;6.760;2023-02-11T16:44:28;27.15;;;12.63;;
70014;SDS011;57358;51.094;6.760;2023-02-11T16:46:57;26.45;;;12.35;;
70014;SDS011;57358;51.094;6.760;2023-02-11T16:49:35;31.80;;;13.48;;
70014;SDS011;57358;51.094;6.760;2023-02-11T16:52:06;25.58;;;13.43;;
70014;SDS011;57358;51.094;6.760;2023-02-11T16:54:37;16.90;;;12.50;;
70014;SDS011;57358;51.094;6.760;2023-02-11T16:57:07;20.85;;;12.98;;
70014;SDS011;57358;51.094;6.760;2023-02-11T16:59:38;36.58;;;13.63;;
70014;SDS011;57358;51.094;6.760;2023-02-11T17:02:07;31.67;;;11.57;;
70014;SDS011;57358;51.094;6.760;2023-02-11T17:04:39;16.08;;;12.05;;
70014;SDS011;57358;51.094;6.760;2023-02-11T17:07:05;22.80;;;13.13;;